sensor_id;sensor_type;location;lat;lon;timestamp;P1;durP1;ratioP1;P2;durP2;ratioP2
6983;SDS011;3532;51.118;7.210;2023-07-02T00:00:53;4.07;;;3.67;;
6983;SDS011;3532;51.118;7.210;2023-07-02T00:03:20;6.50;;;4.23;;
6983;SDS011;3532;51.118;7.210;2023-07-02T00:05:47;6.03;;;4.70;;
6983;SDS011;3532;51.118;7.210;2023-07-02T00:08:15;6.13;;;4.03;;
6983;SDS011;3532;51.118;7.210;2023-07-02T00:10:41;6.83;;;4.67;;
6983;SDS011;3532;51.118;7.210;2023-07-02T00:13:06;4.83;;;3.77;;
6983;SDS011;3532;51.118;7.210;2023-07-02T00:15:32;7.27;;;4.40;;
6983;SDS011;3532;51.118;7.210;2023-07-02T00:17:57;5.37;;;4.10;;
6983;SDS011;3532;51.118;7.210;2023-07-02T00:20:22;4.77;;;4.30;;
6983;SDS011;3532;51.118;7.210;2023-07-02T00:22:48;6.63;;;4.50;;
6983;SDS011;3532;51.118;7.210;2023-07-02T00:25:15;5.53;;;4.43;;
6983;SDS011;3532;51.118;7.210;2023-07-02T00:27:41;4.87;;;3.90;;
6983;SDS011;3532;51.118;7.210;2023-07-02T00:30:06;6.10;;;4.63;;
6983;SDS011;3532;51.118;7.210;2023-07-02T00:32:32;6.20;;;4.43;;
6983;SDS011;3532;51.118;7.210;2023-07-02T00:34:58;8.00;;;4.33;;
6983;SDS011;3532;51.118;7.210;2023-07-02T00:37:24;5.93;;;3.83;;
6983;SDS011;3532;51.118;7.210;2023-07-02T00:39:49;5.00;;;4.43;;
6983;SDS011;3532;51.118;7.210;2023-07-02T00:42:14;6.50;;;3.97;;
6983;SDS011;3532;51.118;7.210;2023-07-02T00:44:41;7.20;;;4.87;;
6983;SDS011;3532;51.118;7.210;2023-07-02T00:47:10;6.00;;;4.40;;
6983;SDS011;3532;51.118;7.210;2023-07-02T00:49:36;7.80;;;4.23;;
6983;SDS011;3532;51.118;7.210;2023-07-02T00:52:01;7.57;;;4.93;;
6983;SDS011;3532;51.118;7.210;2023-07-02T00:54:30;4.70;;;4.03;;
6983;SDS011;3532;51.118;7.210;2023-07-02T00:56:56;4.73;;;4.10;;
6983;SDS011;3532;51.118;7.210;2023-07-02T00:59:21;6.30;;;4.97;;
6983;SDS011;3532;51.118;7.210;2023-07-02T01:01:47;6.00;;;5.10;;
6983;SDS011;3532;51.118;7.210;2023-07-02T01:04:16;8.77;;;5.20;;
6983;SDS011;3532;51.118;7.210;2023-07-02T01:06:43;9.77;;;5.83;;
6983;SDS011;3532;51.118;7.210;2023-07-02T01:09:08;8.90;;;5.57;;
6983;SDS011;3532;51.118;7.210;2023-07-02T01:11:36;11.53;;;5.87;;
6983;SDS011;3532;51.118;7.210;2023-07-02T01:14:17;9.73;;;6.27;;
6983;SDS011;3532;51.118;7.210;2023-07-02T01:16:45;9.07;;;6.17;;
6983;SDS011;3532;51.118;7.210;2023-07-02T01:19:21;9.20;;;6.50;;
6983;SDS011;3532;51.118;7.210;2023-07-02T01:22:06;9.63;;;5.30;;
6983;SDS011;3532;51.118;7.210;2023-07-02T01:24:32;12.50;;;6.63;;
6983;SDS011;3532;51.118;7.210;2023-07-02T01:26:57;11.13;;;6.70;;
6983;SDS011;3532;51.118;7.210;2023-07-02T01:29:28;11.03;;;6.97;;
6983;SDS011;3532;51.118;7.210;2023-07-02T01:31:54;13.47;;;6.50;;
6983;SDS011;3532;51.118;7.210;2023-07-02T01:34:19;12.83;;;7.23;;
6983;SDS011;3532;51.118;7.210;2023-07-02T01:36:44;9.13;;;7.27;;
6983;SDS011;3532;51.118;7.210;2023-07-02T01:39:10;11.13;;;6.90;;
6983;SDS011;3532;51.118;7.210;2023-07-02T01:41:42;11.43;;;7.27;;
6983;SDS011;3532;51.118;7.210;2023-07-02T01:44:09;11.43;;;7.77;;
6983;SDS011;3532;51.118;7.210;2023-07-02T01:46:35;10.10;;;6.77;;
6983;SDS011;3532;51.118;7.210;2023-07-02T01:49:00;10.50;;;7.30;;
6983;SDS011;3532;51.118;7.210;2023-07-02T01:51:25;12.97;;;7.83;;
6983;SDS011;3532;51.118;7.210;2023-07-02T01:53:51;11.80;;;7.63;;
6983;SDS011;3532;51.118;7.210;2023-07-02T01:56:16;12.27;;;7.23;;
6983;SDS011;3532;51.118;7.210;2023-07-02T01:58:41;10.27;;;7.10;;
6983;SDS011;3532;51.118;7.210;2023-07-02T02:01:07;13.43;;;8.17;;
6983;SDS011;3532;51.118;7.210;2023-07-02T02:03:32;10.77;;;8.10;;
6983;SDS011;3532;51.118;7.210;2023-07-02T02:05:57;12.20;;;7.67;;
6983;SDS011;3532;51.118;7.210;2023-07-02T02:08:22;13.23;;;8.03;;
6983;SDS011;3532;51.118;7.210;2023-07-02T02:10:48;13.97;;;7.50;;
6983;SDS011;3532;51.118;7.210;2023-07-02T02:13:13;13.07;;;8.07;;
6983;SDS011;3532;51.118;7.210;2023-07-02T02:15:38;13.37;;;7.50;;
6983;SDS011;3532;51.118;7.210;2023-07-02T02:18:04;14.77;;;8.00;;
6983;SDS011;3532;51.118;7.210;2023-07-02T02:20:29;11.07;;;7.30;;
6983;SDS011;3532;51.118;7.210;2023-07-02T02:22:54;13.20;;;8.00;;
6983;SDS011;3532;51.118;7.210;2023-07-02T02:25:20;11.97;;;8.10;;
6983;SDS011;3532;51.118;7.210;2023-07-02T02:27:45;11.30;;;8.60;;
6983;SDS011;3532;51.118;7.210;2023-07-02T02:30:10;12.30;;;7.80;;
6983;SDS011;3532;51.118;7.210;2023-07-02T02:32:36;13.67;;;8.47;;
6983;SDS011;3532;51.118;7.210;2023-07-02T02:35:02;12.07;;;9.23;;
6983;SDS011;3532;51.118;7.210;2023-07-02T02:37:27;13.90;;;8.40;;
6983;SDS011;3532;51.118;7.210;2023-07-02T02:39:54;13.93;;;8.90;;
6983;SDS011;3532;51.118;7.210;2023-07-02T02:42:22;13.03;;;7.67;;
6983;SDS011;3532;51.118;7.210;2023-07-02T02:44:47;14.00;;;9.27;;
6983;SDS011;3532;51.118;7.210;2023-07-02T02:47:12;12.40;;;9.30;;
6983;SDS011;3532;51.118;7.210;2023-07-02T02:49:38;16.07;;;9.67;;
6983;SDS011;3532;51.118;7.210;2023-07-02T02:52:04;13.67;;;9.80;;
6983;SDS011;3532;51.118;7.210;2023-07-02T02:54:30;13.57;;;9.10;;
6983;SDS011;3532;51.118;7.210;2023-07-02T02:56:55;13.37;;;8.93;;
6983;SDS011;3532;51.118;7.210;2023-07-02T02:59:20;14.30;;;9.47;;
6983;SDS011;3532;51.118;7.210;2023-07-02T03:01:45;17.90;;;9.43;;
6983;SDS011;3532;51.118;7.210;2023-07-02T03:04:11;14.07;;;9.20;;
6983;SDS011;3532;51.118;7.210;2023-07-02T03:06:36;14.47;;;9.63;;
6983;SDS011;3532;51.118;7.210;2023-07-02T03:09:02;12.17;;;9.40;;
6983;SDS011;3532;51.118;7.210;2023-07-02T03:11:27;19.80;;;9.63;;
6983;SDS011;3532;51.118;7.210;2023-07-02T03:13:52;16.07;;;9.47;;
6983;SDS011;3532;51.118;7.210;2023-07-02T03:16:18;15.90;;;10.33;;
6983;SDS011;3532;51.118;7.210;2023-07-02T03:18:45;15.93;;;9.83;;
6983;SDS011;3532;51.118;7.210;2023-07-02T03:21:10;15.63;;;10.43;;
6983;SDS011;3532;51.118;7.210;2023-07-02T03:23:35;20.27;;;11.20;;
6983;SDS011;3532;51.118;7.210;2023-07-02T03:26:01;15.40;;;10.53;;
6983;SDS011;3532;51.118;7.210;2023-07-02T03:28:26;17.83;;;10.40;;
6983;SDS011;3532;51.118;7.210;2023-07-02T03:30:51;15.20;;;10.97;;
6983;SDS011;3532;51.118;7.210;2023-07-02T03:33:17;16.60;;;10.37;;
6983;SDS011;3532;51.118;7.210;2023-07-02T03:35:42;17.60;;;11.47;;
6983;SDS011;3532;51.118;7.210;2023-07-02T03:38:07;17.43;;;11.20;;
6983;SDS011;3532;51.118;7.210;2023-07-02T03:40:32;19.50;;;10.40;;
6983;SDS011;3532;51.118;7.210;2023-07-02T03:42:58;21.03;;;11.57;;
6983;SDS011;3532;51.118;7.210;2023-07-02T03:45:23;20.10;;;12.00;;
6983;SDS011;3532;51.118;7.210;2023-07-02T03:47:49;13.50;;;10.70;;
6983;SDS011;3532;51.118;7.210;2023-07-02T03:50:14;18.13;;;12.43;;
6983;SDS011;3532;51.118;7.210;2023-07-02T03:52:39;18.30;;;12.00;;
6983;SDS011;3532;51.118;7.210;2023-07-02T03:55:05;19.53;;;12.60;;
6983;SDS011;3532;51.118;7.210;2023-07-02T03:57:30;16.50;;;11.83;;
6983;SDS011;3532;51.118;7.210;2023-07-02T03:59:56;22.53;;;12.73;;
6983;SDS011;3532;51.118;7.210;2023-07-02T04:02:21;19.63;;;12.43;;
6983;SDS011;3532;51.118;7.210;2023-07-02T04:04:46;18.60;;;11.47;;
6983;SDS011;3532;51.118;7.210;2023-07-02T04:07:12;20.17;;;12.67;;
6983;SDS011;3532;51.118;7.210;2023-07-02T04:09:37;17.03;;;11.67;;
6983;SDS011;3532;51.118;7.210;2023-07-02T04:12:03;17.07;;;12.23;;
6983;SDS011;3532;51.118;7.210;2023-07-02T04:14:29;22.00;;;14.00;;
6983;SDS011;3532;51.118;7.210;2023-07-02T04:16:54;20.53;;;11.97;;
6983;SDS011;3532;51.118;7.210;2023-07-02T04:19:19;22.27;;;13.83;;
6983;SDS011;3532;51.118;7.210;2023-07-02T04:21:45;18.63;;;13.20;;
6983;SDS011;3532;51.118;7.210;2023-07-02T04:24:10;22.27;;;13.33;;
6983;SDS011;3532;51.118;7.210;2023-07-02T04:26:35;22.83;;;13.73;;
6983;SDS011;3532;51.118;7.210;2023-07-02T04:29:01;23.73;;;13.60;;
6983;SDS011;3532;51.118;7.210;2023-07-02T04:31:27;16.47;;;12.13;;
6983;SDS011;3532;51.118;7.210;2023-07-02T04:33:52;20.07;;;13.27;;
6983;SDS011;3532;51.118;7.210;2023-07-02T04:36:18;18.57;;;13.23;;
6983;SDS011;3532;51.118;7.210;2023-07-02T04:38:43;24.00;;;13.97;;
6983;SDS011;3532;51.118;7.210;2023-07-02T04:41:08;16.40;;;12.47;;
6983;SDS011;3532;51.118;7.210;2023-07-02T04:43:35;19.87;;;13.93;;
6983;SDS011;3532;51.118;7.210;2023-07-02T04:46:01;19.03;;;13.17;;
6983;SDS011;3532;51.118;7.210;2023-07-02T04:48:26;23.13;;;14.33;;
6983;SDS011;3532;51.118;7.210;2023-07-02T04:50:52;23.00;;;14.97;;
6983;SDS011;3532;51.118;7.210;2023-07-02T04:53:17;22.33;;;14.97;;
6983;SDS011;3532;51.118;7.210;2023-07-02T04:55:43;28.93;;;16.27;;
6983;SDS011;3532;51.118;7.210;2023-07-02T04:58:08;20.20;;;14.93;;
6983;SDS011;3532;51.118;7.210;2023-07-02T05:00:33;24.93;;;15.70;;
6983;SDS011;3532;51.118;7.210;2023-07-02T05:02:58;20.63;;;14.70;;
6983;SDS011;3532;51.118;7.210;2023-07-02T05:05:24;26.23;;;16.43;;
6983;SDS011;3532;51.118;7.210;2023-07-02T05:07:49;19.60;;;14.07;;
6983;SDS011;3532;51.118;7.210;2023-07-02T05:10:14;19.73;;;14.60;;
6983;SDS011;3532;51.118;7.210;2023-07-02T05:12:40;22.93;;;14.60;;
6983;SDS011;3532;51.118;7.210;2023-07-02T05:15:05;25.13;;;15.80;;
6983;SDS011;3532;51.118;7.210;2023-07-02T05:17:31;21.63;;;15.77;;
6983;SDS011;3532;51.118;7.210;2023-07-02T05:19:59;26.23;;;15.80;;
6983;SDS011;3532;51.118;7.210;2023-07-02T05:22:25;20.90;;;15.73;;
6983;SDS011;3532;51.118;7.210;2023-07-02T05:24:50;25.10;;;17.33;;
6983;SDS011;3532;51.118;7.210;2023-07-02T05:27:15;30.67;;;16.73;;
6983;SDS011;3532;51.118;7.210;2023-07-02T05:29:41;22.47;;;15.90;;
6983;SDS011;3532;51.118;7.210;2023-07-02T05:32:07;24.20;;;17.07;;
6983;SDS011;3532;51.118;7.210;2023-07-02T05:34:33;23.57;;;17.17;;
6983;SDS011;3532;51.118;7.210;2023-07-02T05:36:58;27.77;;;18.13;;
6983;SDS011;3532;51.118;7.210;2023-07-02T05:39:23;23.43;;;16.20;;
6983;SDS011;3532;51.118;7.210;2023-07-02T05:41:49;23.13;;;17.50;;
6983;SDS011;3532;51.118;7.210;2023-07-02T05:44:14;23.40;;;16.27;;
6983;SDS011;3532;51.118;7.210;2023-07-02T05:46:39;25.53;;;16.80;;
6983;SDS011;3532;51.118;7.210;2023-07-02T05:49:05;26.47;;;16.47;;
6983;SDS011;3532;51.118;7.210;2023-07-02T05:51:31;25.87;;;18.17;;
6983;SDS011;3532;51.118;7.210;2023-07-02T05:53:56;25.53;;;18.43;;
6983;SDS011;3532;51.118;7.210;2023-07-02T05:56:21;24.40;;;18.00;;
6983;SDS011;3532;51.118;7.210;2023-07-02T05:58:48;25.53;;;17.67;;
6983;SDS011;3532;51.118;7.210;2023-07-02T06:01:14;30.60;;;18.30;;
6983;SDS011;3532;51.118;7.210;2023-07-02T06:03:39;27.77;;;19.23;;
6983;SDS011;3532;51.118;7.210;2023-07-02T06:06:05;32.93;;;18.17;;
6983;SDS011;3532;51.118;7.210;2023-07-02T06:08:30;29.20;;;18.60;;
6983;SDS011;3532;51.118;7.210;2023-07-02T06:10:55;27.87;;;18.60;;
6983;SDS011;3532;51.118;7.210;2023-07-02T06:13:20;28.00;;;19.20;;
6983;SDS011;3532;51.118;7.210;2023-07-02T06:15:46;25.83;;;19.13;;
6983;SDS011;3532;51.118;7.210;2023-07-02T06:18:12;28.00;;;18.83;;
6983;SDS011;3532;51.118;7.210;2023-07-02T06:20:37;35.07;;;18.77;;
6983;SDS011;3532;51.118;7.210;2023-07-02T06:23:03;28.13;;;17.97;;
6983;SDS011;3532;51.118;7.210;2023-07-02T06:25:28;28.07;;;19.00;;
6983;SDS011;3532;51.118;7.210;2023-07-02T06:27:53;30.87;;;19.70;;
6983;SDS011;3532;51.118;7.210;2023-07-02T06:30:23;25.00;;;18.63;;
6983;SDS011;3532;51.118;7.210;2023-07-02T06:32:48;26.27;;;18.27;;
6983;SDS011;3532;51.118;7.210;2023-07-02T06:35:14;29.20;;;17.83;;
6983;SDS011;3532;51.118;7.210;2023-07-02T06:37:39;26.77;;;17.83;;
6983;SDS011;3532;51.118;7.210;2023-07-02T06:40:05;28.30;;;17.67;;
6983;SDS011;3532;51.118;7.210;2023-07-02T06:42:31;41.27;;;20.77;;
6983;SDS011;3532;51.118;7.210;2023-07-02T06:44:57;31.33;;;19.30;;
6983;SDS011;3532;51.118;7.210;2023-07-02T06:47:23;29.53;;;18.13;;
6983;SDS011;3532;51.118;7.210;2023-07-02T06:49:48;27.90;;;17.87;;
6983;SDS011;3532;51.118;7.210;2023-07-02T06:52:13;24.17;;;18.23;;
6983;SDS011;3532;51.118;7.210;2023-07-02T06:54:39;28.70;;;18.37;;
6983;SDS011;3532;51.118;7.210;2023-07-02T06:57:04;25.50;;;17.60;;
6983;SDS011;3532;51.118;7.210;2023-07-02T06:59:29;23.60;;;17.93;;
6983;SDS011;3532;51.118;7.210;2023-07-02T07:01:55;28.23;;;17.50;;
6983;SDS011;3532;51.118;7.210;2023-07-02T07:04:20;23.37;;;16.43;;
6983;SDS011;3532;51.118;7.210;2023-07-02T07:06:45;23.40;;;16.70;;
6983;SDS011;3532;51.118;7.210;2023-07-02T07:09:11;21.87;;;16.57;;
6983;SDS011;3532;51.118;7.210;2023-07-02T07:11:36;22.67;;;16.30;;
6983;SDS011;3532;51.118;7.210;2023-07-02T07:14:01;21.43;;;15.70;;
6983;SDS011;3532;51.118;7.210;2023-07-02T07:16:27;25.37;;;16.77;;
6983;SDS011;3532;51.118;7.210;2023-07-02T07:18:52;26.97;;;17.57;;
6983;SDS011;3532;51.118;7.210;2023-07-02T07:21:17;28.53;;;16.17;;
6983;SDS011;3532;51.118;7.210;2023-07-02T07:23:43;23.70;;;16.90;;
6983;SDS011;3532;51.118;7.210;2023-07-02T07:26:08;22.33;;;16.57;;
6983;SDS011;3532;51.118;7.210;2023-07-02T07:28:33;23.43;;;16.33;;
6983;SDS011;3532;51.118;7.210;2023-07-02T07:30:59;27.90;;;16.63;;
6983;SDS011;3532;51.118;7.210;2023-07-02T07:33:24;26.00;;;16.67;;
6983;SDS011;3532;51.118;7.210;2023-07-02T07:35:49;31.10;;;18.23;;
6983;SDS011;3532;51.118;7.210;2023-07-02T07:38:15;26.37;;;17.73;;
6983;SDS011;3532;51.118;7.210;2023-07-02T07:40:40;27.10;;;16.73;;
6983;SDS011;3532;51.118;7.210;2023-07-02T07:43:06;29.47;;;17.50;;
6983;SDS011;3532;51.118;7.210;2023-07-02T07:45:31;28.47;;;16.57;;
6983;SDS011;3532;51.118;7.210;2023-07-02T07:47:56;25.03;;;17.03;;
6983;SDS011;3532;51.118;7.210;2023-07-02T07:50:22;24.93;;;16.67;;
6983;SDS011;3532;51.118;7.210;2023-07-02T07:52:47;23.77;;;17.83;;
6983;SDS011;3532;51.118;7.210;2023-07-02T07:55:13;27.10;;;17.17;;
6983;SDS011;3532;51.118;7.210;2023-07-02T07:57:38;30.83;;;17.97;;
6983;SDS011;3532;51.118;7.210;2023-07-02T08:00:04;26.87;;;16.47;;
6983;SDS011;3532;51.118;7.210;2023-07-02T08:02:32;25.73;;;15.17;;
6983;SDS011;3532;51.118;7.210;2023-07-02T08:04:57;21.50;;;14.83;;
6983;SDS011;3532;51.118;7.210;2023-07-02T08:07:22;24.20;;;15.17;;
6983;SDS011;3532;51.118;7.210;2023-07-02T08:09:48;23.77;;;15.40;;
6983;SDS011;3532;51.118;7.210;2023-07-02T08:12:13;22.87;;;15.40;;
6983;SDS011;3532;51.118;7.210;2023-07-02T08:14:38;27.47;;;15.57;;
6983;SDS011;3532;51.118;7.210;2023-07-02T08:17:04;24.97;;;15.60;;
6983;SDS011;3532;51.118;7.210;2023-07-02T08:19:29;22.87;;;14.47;;
6983;SDS011;3532;51.118;7.210;2023-07-02T08:21:54;22.37;;;14.33;;
6983;SDS011;3532;51.118;7.210;2023-07-02T08:24:19;19.70;;;14.17;;
6983;SDS011;3532;51.118;7.210;2023-07-02T08:26:45;21.07;;;14.33;;
6983;SDS011;3532;51.118;7.210;2023-07-02T08:29:11;24.63;;;15.73;;
6983;SDS011;3532;51.118;7.210;2023-07-02T08:31:37;22.23;;;15.60;;
6983;SDS011;3532;51.118;7.210;2023-07-02T08:34:02;23.50;;;15.23;;
6983;SDS011;3532;51.118;7.210;2023-07-02T08:36:28;22.60;;;14.30;;
6983;SDS011;3532;51.118;7.210;2023-07-02T08:38:53;23.67;;;15.83;;
6983;SDS011;3532;51.118;7.210;2023-07-02T08:41:20;28.20;;;15.03;;
6983;SDS011;3532;51.118;7.210;2023-07-02T08:43:45;21.07;;;14.97;;
6983;SDS011;3532;51.118;7.210;2023-07-02T08:46:13;27.10;;;16.23;;
6983;SDS011;3532;51.118;7.210;2023-07-02T08:48:40;23.80;;;15.37;;
6983;SDS011;3532;51.118;7.210;2023-07-02T08:51:05;22.90;;;15.37;;
6983;SDS011;3532;51.118;7.210;2023-07-02T08:53:30;22.87;;;14.70;;
6983;SDS011;3532;51.118;7.210;2023-07-02T08:55:58;25.13;;;16.03;;
6983;SDS011;3532;51.118;7.210;2023-07-02T08:58:24;21.80;;;15.67;;
6983;SDS011;3532;51.118;7.210;2023-07-02T09:01:09;29.53;;;15.53;;
6983;SDS011;3532;51.118;7.210;2023-07-02T09:03:35;25.60;;;14.40;;
6983;SDS011;3532;51.118;7.210;2023-07-02T09:06:08;21.77;;;14.80;;
6983;SDS011;3532;51.118;7.210;2023-07-02T09:08:34;25.23;;;16.40;;
6983;SDS011;3532;51.118;7.210;2023-07-02T09:13:31;23.50;;;15.27;;
6983;SDS011;3532;51.118;7.210;2023-07-02T09:15:56;23.30;;;15.87;;
6983;SDS011;3532;51.118;7.210;2023-07-02T09:18:22;26.80;;;15.60;;
6983;SDS011;3532;51.118;7.210;2023-07-02T09:20:54;23.43;;;15.10;;
6983;SDS011;3532;51.118;7.210;2023-07-02T09:23:20;20.97;;;13.57;;
6983;SDS011;3532;51.118;7.210;2023-07-02T09:25:45;26.20;;;14.60;;
6983;SDS011;3532;51.118;7.210;2023-07-02T09:28:17;28.67;;;14.80;;
6983;SDS011;3532;51.118;7.210;2023-07-02T09:30:56;23.63;;;14.90;;
6983;SDS011;3532;51.118;7.210;2023-07-02T09:33:28;21.07;;;15.27;;
6983;SDS011;3532;51.118;7.210;2023-07-02T09:35:54;20.30;;;15.00;;
6983;SDS011;3532;51.118;7.210;2023-07-02T09:38:20;27.67;;;14.90;;
6983;SDS011;3532;51.118;7.210;2023-07-02T09:40:46;23.13;;;14.70;;
6983;SDS011;3532;51.118;7.210;2023-07-02T09:43:14;21.97;;;13.63;;
6983;SDS011;3532;51.118;7.210;2023-07-02T09:45:42;21.83;;;14.77;;
6983;SDS011;3532;51.118;7.210;2023-07-02T09:48:09;20.93;;;14.27;;
6983;SDS011;3532;51.118;7.210;2023-07-02T09:50:37;23.47;;;14.47;;
6983;SDS011;3532;51.118;7.210;2023-07-02T09:53:03;23.15;;;16.23;;
6983;SDS011;3532;51.118;7.210;2023-07-02T09:55:28;23.50;;;14.17;;
6983;SDS011;3532;51.118;7.210;2023-07-02T09:57:54;25.00;;;15.03;;
6983;SDS011;3532;51.118;7.210;2023-07-02T10:00:19;21.57;;;14.57;;
6983;SDS011;3532;51.118;7.210;2023-07-02T10:02:51;22.77;;;14.17;;
6983;SDS011;3532;51.118;7.210;2023-07-02T10:07:51;21.03;;;13.60;;
6983;SDS011;3532;51.118;7.210;2023-07-02T10:10:29;28.53;;;14.20;;
6983;SDS011;3532;51.118;7.210;2023-07-02T10:12:55;26.00;;;15.00;;
6983;SDS011;3532;51.118;7.210;2023-07-02T10:15:27;22.60;;;15.00;;
6983;SDS011;3532;51.118;7.210;2023-07-02T10:18:02;27.07;;;15.47;;
6983;SDS011;3532;51.118;7.210;2023-07-02T10:20:35;27.30;;;14.60;;
6983;SDS011;3532;51.118;7.210;2023-07-02T10:23:02;21.77;;;14.23;;
6983;SDS011;3532;51.118;7.210;2023-07-02T10:25:31;24.67;;;13.97;;
6983;SDS011;3532;51.118;7.210;2023-07-02T10:27:59;24.03;;;14.20;;
6983;SDS011;3532;51.118;7.210;2023-07-02T10:30:32;20.40;;;14.17;;
6983;SDS011;3532;51.118;7.210;2023-07-02T10:33:07;25.10;;;15.37;;
6983;SDS011;3532;51.118;7.210;2023-07-02T10:35:34;26.87;;;15.10;;
6983;SDS011;3532;51.118;7.210;2023-07-02T10:37:59;23.90;;;15.30;;
6983;SDS011;3532;51.118;7.210;2023-07-02T10:40:25;27.80;;;15.90;;
6983;SDS011;3532;51.118;7.210;2023-07-02T10:42:51;21.87;;;14.63;;
6983;SDS011;3532;51.118;7.210;2023-07-02T10:45:17;23.17;;;15.30;;
6983;SDS011;3532;51.118;7.210;2023-07-02T10:47:44;25.42;;;16.83;;
6983;SDS011;3532;51.118;7.210;2023-07-02T10:50:19;22.87;;;16.23;;
6983;SDS011;3532;51.118;7.210;2023-07-02T10:52:46;25.00;;;16.57;;
6983;SDS011;3532;51.118;7.210;2023-07-02T10:55:18;21.80;;;15.90;;
6983;SDS011;3532;51.118;7.210;2023-07-02T10:57:44;24.43;;;16.67;;
6983;SDS011;3532;51.118;7.210;2023-07-02T11:00:09;23.13;;;14.77;;
6983;SDS011;3532;51.118;7.210;2023-07-02T11:02:38;25.10;;;15.23;;
6983;SDS011;3532;51.118;7.210;2023-07-02T11:05:04;22.60;;;14.77;;
6983;SDS011;3532;51.118;7.210;2023-07-02T11:07:37;20.90;;;14.40;;
6983;SDS011;3532;51.118;7.210;2023-07-02T11:10:08;20.80;;;14.30;;
6983;SDS011;3532;51.118;7.210;2023-07-02T11:12:35;21.50;;;16.27;;
6983;SDS011;3532;51.118;7.210;2023-07-02T11:15:08;21.67;;;15.50;;
6983;SDS011;3532;51.118;7.210;2023-07-02T11:17:33;20.47;;;14.53;;
6983;SDS011;3532;51.118;7.210;2023-07-02T11:19:59;20.60;;;14.33;;
6983;SDS011;3532;51.118;7.210;2023-07-02T11:22:31;25.77;;;14.90;;
6983;SDS011;3532;51.118;7.210;2023-07-02T11:24:57;27.67;;;14.90;;
6983;SDS011;3532;51.118;7.210;2023-07-02T11:27:44;22.10;;;14.40;;
6983;SDS011;3532;51.118;7.210;2023-07-02T11:30:09;22.07;;;14.70;;
6983;SDS011;3532;51.118;7.210;2023-07-02T11:32:48;24.00;;;14.97;;
6983;SDS011;3532;51.118;7.210;2023-07-02T11:35:15;19.97;;;13.90;;
6983;SDS011;3532;51.118;7.210;2023-07-02T11:37:41;21.67;;;14.80;;
6983;SDS011;3532;51.118;7.210;2023-07-02T11:40:06;25.30;;;13.90;;
6983;SDS011;3532;51.118;7.210;2023-07-02T11:42:32;23.97;;;14.87;;
6983;SDS011;3532;51.118;7.210;2023-07-02T11:44:57;22.23;;;14.50;;
6983;SDS011;3532;51.118;7.210;2023-07-02T11:47:23;23.20;;;14.77;;
6983;SDS011;3532;51.118;7.210;2023-07-02T11:49:50;24.87;;;14.10;;
6983;SDS011;3532;51.118;7.210;2023-07-02T11:52:15;22.40;;;13.27;;
6983;SDS011;3532;51.118;7.210;2023-07-02T11:54:40;23.07;;;15.33;;
6983;SDS011;3532;51.118;7.210;2023-07-02T11:57:06;21.23;;;14.83;;
6983;SDS011;3532;51.118;7.210;2023-07-02T11:59:31;20.47;;;13.70;;
6983;SDS011;3532;51.118;7.210;2023-07-02T12:01:56;23.73;;;14.70;;
6983;SDS011;3532;51.118;7.210;2023-07-02T12:04:22;23.50;;;13.53;;
6983;SDS011;3532;51.118;7.210;2023-07-02T12:06:47;20.33;;;12.97;;
6983;SDS011;3532;51.118;7.210;2023-07-02T12:09:12;18.60;;;11.97;;
6983;SDS011;3532;51.118;7.210;2023-07-02T12:11:38;16.20;;;12.00;;
6983;SDS011;3532;51.118;7.210;2023-07-02T12:14:03;19.57;;;13.27;;
6983;SDS011;3532;51.118;7.210;2023-07-02T12:16:29;18.13;;;12.57;;
6983;SDS011;3532;51.118;7.210;2023-07-02T12:18:54;17.83;;;11.67;;
6983;SDS011;3532;51.118;7.210;2023-07-02T12:21:19;16.53;;;11.80;;
6983;SDS011;3532;51.118;7.210;2023-07-02T12:23:45;22.40;;;13.07;;
6983;SDS011;3532;51.118;7.210;2023-07-02T12:26:11;18.83;;;11.93;;
6983;SDS011;3532;51.118;7.210;2023-07-02T12:28:36;19.27;;;11.53;;
6983;SDS011;3532;51.118;7.210;2023-07-02T12:31:01;19.40;;;11.47;;
6983;SDS011;3532;51.118;7.210;2023-07-02T12:33:27;17.37;;;11.67;;
6983;SDS011;3532;51.118;7.210;2023-07-02T12:35:53;15.70;;;10.13;;
6983;SDS011;3532;51.118;7.210;2023-07-02T12:38:18;14.00;;;10.13;;
6983;SDS011;3532;51.118;7.210;2023-07-02T12:40:43;17.03;;;10.43;;
6983;SDS011;3532;51.118;7.210;2023-07-02T12:43:08;20.37;;;10.57;;
6983;SDS011;3532;51.118;7.210;2023-07-02T12:45:34;17.83;;;11.60;;
6983;SDS011;3532;51.118;7.210;2023-07-02T12:47:59;13.17;;;9.40;;
6983;SDS011;3532;51.118;7.210;2023-07-02T12:50:24;15.57;;;10.10;;
6983;SDS011;3532;51.118;7.210;2023-07-02T12:52:50;18.20;;;11.07;;
6983;SDS011;3532;51.118;7.210;2023-07-02T12:55:15;15.63;;;11.17;;
6983;SDS011;3532;51.118;7.210;2023-07-02T12:57:41;17.73;;;10.47;;
6983;SDS011;3532;51.118;7.210;2023-07-02T13:00:06;19.03;;;10.70;;
6983;SDS011;3532;51.118;7.210;2023-07-02T13:02:33;20.37;;;10.70;;
6983;SDS011;3532;51.118;7.210;2023-07-02T13:04:59;15.57;;;9.63;;
6983;SDS011;3532;51.118;7.210;2023-07-02T13:07:24;16.63;;;9.67;;
6983;SDS011;3532;51.118;7.210;2023-07-02T13:09:50;14.23;;;9.57;;
6983;SDS011;3532;51.118;7.210;2023-07-02T13:12:16;14.23;;;8.53;;
6983;SDS011;3532;51.118;7.210;2023-07-02T13:14:42;17.63;;;9.53;;
6983;SDS011;3532;51.118;7.210;2023-07-02T13:17:07;12.73;;;9.13;;
6983;SDS011;3532;51.118;7.210;2023-07-02T13:19:32;12.67;;;9.30;;
6983;SDS011;3532;51.118;7.210;2023-07-02T13:21:58;18.23;;;9.23;;
6983;SDS011;3532;51.118;7.210;2023-07-02T13:24:24;12.87;;;8.40;;
6983;SDS011;3532;51.118;7.210;2023-07-02T13:26:49;13.27;;;8.63;;
6983;SDS011;3532;51.118;7.210;2023-07-02T13:29:15;13.13;;;8.47;;
6983;SDS011;3532;51.118;7.210;2023-07-02T13:31:41;15.93;;;7.80;;
6983;SDS011;3532;51.118;7.210;2023-07-02T13:34:06;13.50;;;8.93;;
6983;SDS011;3532;51.118;7.210;2023-07-02T13:36:32;12.47;;;8.20;;
6983;SDS011;3532;51.118;7.210;2023-07-02T13:38:57;13.13;;;9.73;;
6983;SDS011;3532;51.118;7.210;2023-07-02T13:41:22;16.53;;;9.77;;
6983;SDS011;3532;51.118;7.210;2023-07-02T13:43:48;14.70;;;9.17;;
6983;SDS011;3532;51.118;7.210;2023-07-02T13:46:13;13.53;;;8.73;;
6983;SDS011;3532;51.118;7.210;2023-07-02T13:48:39;15.70;;;9.47;;
6983;SDS011;3532;51.118;7.210;2023-07-02T13:51:04;14.00;;;8.00;;
6983;SDS011;3532;51.118;7.210;2023-07-02T13:53:30;15.97;;;8.70;;
6983;SDS011;3532;51.118;7.210;2023-07-02T13:55:55;9.17;;;7.93;;
6983;SDS011;3532;51.118;7.210;2023-07-02T13:58:22;13.53;;;8.37;;
6983;SDS011;3532;51.118;7.210;2023-07-02T14:00:47;13.37;;;8.50;;
6983;SDS011;3532;51.118;7.210;2023-07-02T14:03:13;14.53;;;8.57;;
6983;SDS011;3532;51.118;7.210;2023-07-02T14:05:38;13.70;;;9.93;;
6983;SDS011;3532;51.118;7.210;2023-07-02T14:08:03;15.33;;;8.93;;
6983;SDS011;3532;51.118;7.210;2023-07-02T14:10:29;13.43;;;8.53;;
6983;SDS011;3532;51.118;7.210;2023-07-02T14:12:54;14.60;;;9.33;;
6983;SDS011;3532;51.118;7.210;2023-07-02T14:15:19;11.73;;;8.50;;
6983;SDS011;3532;51.118;7.210;2023-07-02T14:17:45;13.47;;;9.30;;
6983;SDS011;3532;51.118;7.210;2023-07-02T14:20:11;15.50;;;9.53;;
6983;SDS011;3532;51.118;7.210;2023-07-02T14:22:36;16.97;;;10.33;;
6983;SDS011;3532;51.118;7.210;2023-07-02T14:25:02;15.23;;;11.00;;
6983;SDS011;3532;51.118;7.210;2023-07-02T14:27:27;15.70;;;10.60;;
6983;SDS011;3532;51.118;7.210;2023-07-02T14:29:52;20.50;;;10.77;;
6983;SDS011;3532;51.118;7.210;2023-07-02T14:32:18;14.13;;;9.97;;
6983;SDS011;3532;51.118;7.210;2023-07-02T14:34:43;17.30;;;11.27;;
6983;SDS011;3532;51.118;7.210;2023-07-02T14:37:08;16.50;;;10.43;;
6983;SDS011;3532;51.118;7.210;2023-07-02T14:39:34;17.23;;;10.50;;
6983;SDS011;3532;51.118;7.210;2023-07-02T14:41:59;15.73;;;10.10;;
6983;SDS011;3532;51.118;7.210;2023-07-02T14:44:25;16.73;;;10.97;;
6983;SDS011;3532;51.118;7.210;2023-07-02T14:46:50;19.47;;;10.10;;
6983;SDS011;3532;51.118;7.210;2023-07-02T14:49:15;12.40;;;9.83;;
6983;SDS011;3532;51.118;7.210;2023-07-02T14:51:41;14.53;;;10.73;;